Airfield :
LOGIN :

Register | Disclaimer

   EN    FR    IT 

 










Legend :    VFR   Marginal VFR   IFR   Intensive IFR   Very Intensive IFR
Visi :
Ceiling :
>= 8 km
>= 3000ft
5 to 8 km
1000 to 3000 ft
1500m to 5 km
500 to 1000 ft
800 to 1500m
200 to 500 ft
< 800m
< 200 ft
Symbols :   Thunderstorms  Fog  Heavy snow  Heavy precipitations  Wind > 20 kt
SIGMETs :     Misc.  Thunderstorms  Icing  Turbulence  Mountain Waves  Volcanic Ashes







- Airport Elevation : 55 ft
- IATA code : DSA
- Download approach charts


EGCN - Robin Hood Doncaster Sheffield

CURRENT METAR :
  • 211150Z 19007KT 9999 FEW016 BKN022 18/14 Q1022

EXPIRED METARs :
  • 211120Z 18008KT 9999 SCT015 BKN023 18/14 Q1022
  • 211050Z 18009KT 150V210 9999 SCT013 18/14 Q1022
  • 211020Z 16008KT 130V200 9999 SCT014 18/14 Q1023
  • 210950Z VRB09KT 9999 FEW020 19/14 Q1023
  • 210920Z 15007KT 100V190 9999 FEW018 18/14 Q1022

TAF TAF EGCN
Valid from the 21 at 12:00 until the 22 at 12:00 UTC


211101Z 2112/2212 16005KT 9999 SCT020
PROB40
TEMPO 2113/2119 8000 -RA BKN010
BECMG 2119/2122 7000 BKN008
PROB40
TEMPO 2119/2124 3000 -DZ BR
TEMPO 2200/2208 2000 -DZ BR BKN003
BECMG 2208/2211 SCT020
No reported NOTAMs for that airfield.



MET'MAP, your aeronautical weather chart ! - Copyright ORBIFLY December 2007 - Disclaimer

ORBIFLY MET'MAP TEAM :

Programming & Development : Alexandra Zaïnal
Concept & Development : Baudouin d'Aumeries
Co-Development & Prog : Marc-Olivier Méhu
Technical & hardware support : Manuel Goepfert

Contact : metmap@orbifly.com




SOURCES & CREDITS :

   NOAA